sensor_id;sensor_type;location;lat;lon;timestamp;P1;durP1;ratioP1;P2;durP2;ratioP2
75718;SDS011;64340;48.534;-3.036;2024-03-23T00:56:03;3.53;;;1.00;;
75718;SDS011;64340;48.534;-3.036;2024-03-23T00:58:29;3.28;;;0.50;;
75718;SDS011;64340;48.534;-3.036;2024-03-23T01:00:55;3.58;;;0.55;;
75718;SDS011;64340;48.534;-3.036;2024-03-23T01:03:21;1.75;;;0.50;;
75718;SDS011;64340;48.534;-3.036;2024-03-23T01:05:47;1.15;;;0.35;;
75718;SDS011;64340;48.534;-3.036;2024-03-23T01:08:13;2.53;;;0.50;;
75718;SDS011;64340;48.534;-3.036;2024-03-23T01:10:40;4.63;;;0.93;;
75718;SDS011;64340;48.534;-3.036;2024-03-23T01:13:05;5.32;;;0.93;;
75718;SDS011;64340;48.534;-3.036;2024-03-23T01:15:31;3.95;;;0.70;;
75718;SDS011;64340;48.534;-3.036;2024-03-23T01:17:57;2.88;;;0.70;;
75718;SDS011;64340;48.534;-3.036;2024-03-23T01:20:23;4.22;;;0.70;;
75718;SDS011;64340;48.534;-3.036;2024-03-23T01:22:48;3.40;;;0.60;;
75718;SDS011;64340;48.534;-3.036;2024-03-23T01:25:14;2.92;;;0.60;;
75718;SDS011;64340;48.534;-3.036;2024-03-23T01:27:40;1.80;;;0.35;;
75718;SDS011;64340;48.534;-3.036;2024-03-23T01:30:05;2.28;;;0.60;;
75718;SDS011;64340;48.534;-3.036;2024-03-23T01:32:32;2.10;;;0.50;;
75718;SDS011;64340;48.534;-3.036;2024-03-23T01:34:58;3.15;;;0.82;;
75718;SDS011;64340;48.534;-3.036;2024-03-23T01:37:24;5.07;;;0.60;;
75718;SDS011;64340;48.534;-3.036;2024-03-23T01:39:50;4.22;;;0.60;;
75718;SDS011;64340;48.534;-3.036;2024-03-23T01:42:16;4.40;;;0.70;;
75718;SDS011;64340;48.534;-3.036;2024-03-23T01:44:41;4.55;;;0.50;;
75718;SDS011;64340;48.534;-3.036;2024-03-23T01:47:07;4.85;;;0.70;;
75718;SDS011;64340;48.534;-3.036;2024-03-23T01:49:33;3.95;;;0.60;;
75718;SDS011;64340;48.534;-3.036;2024-03-23T01:51:59;2.08;;;0.73;;
75718;SDS011;64340;48.534;-3.036;2024-03-23T01:54:25;3.05;;;0.60;;
75718;SDS011;64340;48.534;-3.036;2024-03-23T01:56:51;2.55;;;1.20;;
75718;SDS011;64340;48.534;-3.036;2024-03-23T01:59:17;1.98;;;0.50;;
75718;SDS011;64340;48.534;-3.036;2024-03-23T02:01:42;2.13;;;0.38;;
75718;SDS011;64340;48.534;-3.036;2024-03-23T02:04:08;2.83;;;0.70;;
75718;SDS011;64340;48.534;-3.036;2024-03-23T02:06:34;3.90;;;0.50;;
75718;SDS011;64340;48.534;-3.036;2024-03-23T02:09:00;2.90;;;0.55;;
75718;SDS011;64340;48.534;-3.036;2024-03-23T02:11:26;4.57;;;0.73;;
75718;SDS011;64340;48.534;-3.036;2024-03-23T02:13:52;2.55;;;0.50;;
75718;SDS011;64340;48.534;-3.036;2024-03-23T02:16:18;2.90;;;0.60;;
75718;SDS011;64340;48.534;-3.036;2024-03-23T02:18:44;2.25;;;0.28;;
75718;SDS011;64340;48.534;-3.036;2024-03-23T02:21:09;4.22;;;1.08;;
75718;SDS011;64340;48.534;-3.036;2024-03-23T02:23:35;2.88;;;0.40;;
75718;SDS011;64340;48.534;-3.036;2024-03-23T02:26:01;3.40;;;0.77;;
75718;SDS011;64340;48.534;-3.036;2024-03-23T02:28:27;2.15;;;0.40;;
75718;SDS011;64340;48.534;-3.036;2024-03-23T02:30:52;2.55;;;0.47;;
75718;SDS011;64340;48.534;-3.036;2024-03-23T02:33:18;1.27;;;0.20;;
75718;SDS011;64340;48.534;-3.036;2024-03-23T02:35:44;2.13;;;0.30;;
75718;SDS011;64340;48.534;-3.036;2024-03-23T02:38:11;1.77;;;0.50;;
75718;SDS011;64340;48.534;-3.036;2024-03-23T02:40:36;3.90;;;0.57;;
75718;SDS011;64340;48.534;-3.036;2024-03-23T02:43:02;3.22;;;0.50;;
75718;SDS011;64340;48.534;-3.036;2024-03-23T02:45:28;2.55;;;0.43;;
75718;SDS011;64340;48.534;-3.036;2024-03-23T02:47:54;3.55;;;0.47;;
75718;SDS011;64340;48.534;-3.036;2024-03-23T02:50:20;3.30;;;0.40;;
75718;SDS011;64340;48.534;-3.036;2024-03-23T02:52:46;3.65;;;0.30;;
75718;SDS011;64340;48.534;-3.036;2024-03-23T02:55:12;1.92;;;0.40;;
75718;SDS011;64340;48.534;-3.036;2024-03-23T02:57:38;2.63;;;0.50;;
75718;SDS011;64340;48.534;-3.036;2024-03-23T03:00:04;3.53;;;0.65;;
75718;SDS011;64340;48.534;-3.036;2024-03-23T03:02:32;2.08;;;0.50;;
75718;SDS011;64340;48.534;-3.036;2024-03-23T03:04:58;2.20;;;0.50;;
75718;SDS011;64340;48.534;-3.036;2024-03-23T03:07:23;1.38;;;0.30;;
75718;SDS011;64340;48.534;-3.036;2024-03-23T03:09:49;1.65;;;0.30;;
75718;SDS011;64340;48.534;-3.036;2024-03-23T03:12:15;2.65;;;0.50;;
75718;SDS011;64340;48.534;-3.036;2024-03-23T03:14:41;4.25;;;0.40;;
75718;SDS011;64340;48.534;-3.036;2024-03-23T03:17:06;2.65;;;0.52;;
75718;SDS011;64340;48.534;-3.036;2024-03-23T03:19:32;2.30;;;0.50;;
75718;SDS011;64340;48.534;-3.036;2024-03-23T03:21:58;2.25;;;0.43;;
75718;SDS011;64340;48.534;-3.036;2024-03-23T03:24:24;3.80;;;0.40;;
75718;SDS011;64340;48.534;-3.036;2024-03-23T03:26:49;1.95;;;0.43;;
75718;SDS011;64340;48.534;-3.036;2024-03-23T03:29:15;3.10;;;0.60;;
75718;SDS011;64340;48.534;-3.036;2024-03-23T03:31:44;1.55;;;0.30;;
75718;SDS011;64340;48.534;-3.036;2024-03-23T03:34:10;3.72;;;0.40;;
75718;SDS011;64340;48.534;-3.036;2024-03-23T03:36:35;2.25;;;0.35;;
75718;SDS011;64340;48.534;-3.036;2024-03-23T03:39:01;1.25;;;0.30;;
75718;SDS011;64340;48.534;-3.036;2024-03-23T03:41:31;3.28;;;0.57;;
75718;SDS011;64340;48.534;-3.036;2024-03-23T03:43:56;1.98;;;0.40;;
75718;SDS011;64340;48.534;-3.036;2024-03-23T03:46:26;1.42;;;0.30;;
75718;SDS011;64340;48.534;-3.036;2024-03-23T03:48:52;1.75;;;0.28;;
75718;SDS011;64340;48.534;-3.036;2024-03-23T03:51:19;2.85;;;0.32;;
75718;SDS011;64340;48.534;-3.036;2024-03-23T03:53:46;2.53;;;0.43;;
75718;SDS011;64340;48.534;-3.036;2024-03-23T03:56:11;3.00;;;0.30;;
75718;SDS011;64340;48.534;-3.036;2024-03-23T03:58:37;3.50;;;0.40;;
75718;SDS011;64340;48.534;-3.036;2024-03-23T04:01:03;1.40;;;0.40;;
75718;SDS011;64340;48.534;-3.036;2024-03-23T04:03:29;3.13;;;0.40;;
75718;SDS011;64340;48.534;-3.036;2024-03-23T04:05:54;1.52;;;0.28;;
75718;SDS011;64340;48.534;-3.036;2024-03-23T04:08:20;3.17;;;0.40;;
75718;SDS011;64340;48.534;-3.036;2024-03-23T04:10:47;1.92;;;0.40;;
75718;SDS011;64340;48.534;-3.036;2024-03-23T04:13:13;2.33;;;0.38;;
75718;SDS011;64340;48.534;-3.036;2024-03-23T04:15:39;3.42;;;0.40;;
75718;SDS011;64340;48.534;-3.036;2024-03-23T04:18:05;1.27;;;0.50;;
75718;SDS011;64340;48.534;-3.036;2024-03-23T04:20:30;2.35;;;0.43;;
75718;SDS011;64340;48.534;-3.036;2024-03-23T04:22:57;3.05;;;0.43;;
75718;SDS011;64340;48.534;-3.036;2024-03-23T04:25:23;1.63;;;0.40;;
75718;SDS011;64340;48.534;-3.036;2024-03-23T04:27:49;4.22;;;0.50;;
75718;SDS011;64340;48.534;-3.036;2024-03-23T04:30:15;2.15;;;0.35;;
75718;SDS011;64340;48.534;-3.036;2024-03-23T04:32:41;3.38;;;0.30;;
75718;SDS011;64340;48.534;-3.036;2024-03-23T04:35:07;2.53;;;0.47;;
75718;SDS011;64340;48.534;-3.036;2024-03-23T04:37:36;2.58;;;0.35;;
75718;SDS011;64340;48.534;-3.036;2024-03-23T04:40:03;1.38;;;0.30;;
75718;SDS011;64340;48.534;-3.036;2024-03-23T04:42:29;2.90;;;0.60;;
75718;SDS011;64340;48.534;-3.036;2024-03-23T04:44:56;1.02;;;0.20;;
75718;SDS011;64340;48.534;-3.036;2024-03-23T04:47:22;1.67;;;0.30;;
75718;SDS011;64340;48.534;-3.036;2024-03-23T04:49:48;1.58;;;0.30;;
75718;SDS011;64340;48.534;-3.036;2024-03-23T04:52:14;1.83;;;0.28;;
75718;SDS011;64340;48.534;-3.036;2024-03-23T04:54:40;2.20;;;0.60;;
75718;SDS011;64340;48.534;-3.036;2024-03-23T04:57:07;1.60;;;0.32;;
75718;SDS011;64340;48.534;-3.036;2024-03-23T04:59:33;2.20;;;0.20;;
75718;SDS011;64340;48.534;-3.036;2024-03-23T05:01:58;3.15;;;0.55;;
75718;SDS011;64340;48.534;-3.036;2024-03-23T05:04:25;2.72;;;0.30;;
75718;SDS011;64340;48.534;-3.036;2024-03-23T05:06:50;1.30;;;0.30;;
75718;SDS011;64340;48.534;-3.036;2024-03-23T05:09:16;2.05;;;0.43;;
75718;SDS011;64340;48.534;-3.036;2024-03-23T05:11:42;1.63;;;0.40;;
75718;SDS011;64340;48.534;-3.036;2024-03-23T05:14:08;1.13;;;0.38;;
75718;SDS011;64340;48.534;-3.036;2024-03-23T05:16:34;3.45;;;0.40;;
75718;SDS011;64340;48.534;-3.036;2024-03-23T05:19:00;2.08;;;0.40;;
75718;SDS011;64340;48.534;-3.036;2024-03-23T05:21:26;0.90;;;0.30;;
75718;SDS011;64340;48.534;-3.036;2024-03-23T05:23:53;1.58;;;0.40;;
75718;SDS011;64340;48.534;-3.036;2024-03-23T05:26:19;1.27;;;0.30;;
75718;SDS011;64340;48.534;-3.036;2024-03-23T05:28:47;2.13;;;0.40;;
75718;SDS011;64340;48.534;-3.036;2024-03-23T05:31:12;2.00;;;0.30;;
75718;SDS011;64340;48.534;-3.036;2024-03-23T05:33:47;3.05;;;0.40;;
75718;SDS011;64340;48.534;-3.036;2024-03-23T05:36:13;2.20;;;0.45;;
75718;SDS011;64340;48.534;-3.036;2024-03-23T05:38:39;4.28;;;0.70;;
75718;SDS011;64340;48.534;-3.036;2024-03-23T05:41:04;2.30;;;0.40;;
75718;SDS011;64340;48.534;-3.036;2024-03-23T05:43:30;0.93;;;0.30;;
75718;SDS011;64340;48.534;-3.036;2024-03-23T05:45:56;3.58;;;0.52;;
75718;SDS011;64340;48.534;-3.036;2024-03-23T05:48:23;1.67;;;0.40;;
75718;SDS011;64340;48.534;-3.036;2024-03-23T05:50:50;1.98;;;0.40;;
75718;SDS011;64340;48.534;-3.036;2024-03-23T05:53:16;1.35;;;0.60;;
75718;SDS011;64340;48.534;-3.036;2024-03-23T05:55:43;4.97;;;0.70;;
75718;SDS011;64340;48.534;-3.036;2024-03-23T05:58:09;2.28;;;0.60;;
75718;SDS011;64340;48.534;-3.036;2024-03-23T06:00:35;2.58;;;0.40;;
75718;SDS011;64340;48.534;-3.036;2024-03-23T06:03:01;1.63;;;0.60;;
75718;SDS011;64340;48.534;-3.036;2024-03-23T06:05:27;2.05;;;0.45;;
75718;SDS011;64340;48.534;-3.036;2024-03-23T06:07:53;2.83;;;0.60;;
75718;SDS011;64340;48.534;-3.036;2024-03-23T06:10:18;2.00;;;0.57;;
75718;SDS011;64340;48.534;-3.036;2024-03-23T06:12:45;3.13;;;0.85;;
75718;SDS011;64340;48.534;-3.036;2024-03-23T06:15:11;2.42;;;0.50;;
75718;SDS011;64340;48.534;-3.036;2024-03-23T06:17:37;2.65;;;0.38;;
75718;SDS011;64340;48.534;-3.036;2024-03-23T06:20:03;2.50;;;0.43;;
75718;SDS011;64340;48.534;-3.036;2024-03-23T06:22:31;1.95;;;0.52;;
75718;SDS011;64340;48.534;-3.036;2024-03-23T06:24:57;3.80;;;0.80;;
75718;SDS011;64340;48.534;-3.036;2024-03-23T06:27:23;3.47;;;0.68;;
75718;SDS011;64340;48.534;-3.036;2024-03-23T06:29:48;2.05;;;0.45;;
75718;SDS011;64340;48.534;-3.036;2024-03-23T06:32:14;0.98;;;0.40;;
75718;SDS011;64340;48.534;-3.036;2024-03-23T06:34:43;2.35;;;0.40;;
75718;SDS011;64340;48.534;-3.036;2024-03-23T06:37:09;2.53;;;0.30;;
75718;SDS011;64340;48.534;-3.036;2024-03-23T06:39:38;3.15;;;0.75;;
75718;SDS011;64340;48.534;-3.036;2024-03-23T06:42:04;1.98;;;0.40;;
75718;SDS011;64340;48.534;-3.036;2024-03-23T06:44:30;4.80;;;0.80;;
75718;SDS011;64340;48.534;-3.036;2024-03-23T06:46:57;2.97;;;0.50;;
75718;SDS011;64340;48.534;-3.036;2024-03-23T06:49:23;2.85;;;0.50;;
75718;SDS011;64340;48.534;-3.036;2024-03-23T06:51:49;1.67;;;0.30;;
75718;SDS011;64340;48.534;-3.036;2024-03-23T06:54:16;3.15;;;0.40;;
75718;SDS011;64340;48.534;-3.036;2024-03-23T06:56:43;2.72;;;0.50;;
75718;SDS011;64340;48.534;-3.036;2024-03-23T06:59:09;2.40;;;0.55;;
75718;SDS011;64340;48.534;-3.036;2024-03-23T07:01:35;1.85;;;0.50;;
75718;SDS011;64340;48.534;-3.036;2024-03-23T07:04:00;3.72;;;0.47;;
75718;SDS011;64340;48.534;-3.036;2024-03-23T07:06:26;3.45;;;0.40;;
75718;SDS011;64340;48.534;-3.036;2024-03-23T07:08:52;2.80;;;0.50;;
75718;SDS011;64340;48.534;-3.036;2024-03-23T07:11:19;3.60;;;0.75;;
75718;SDS011;64340;48.534;-3.036;2024-03-23T07:13:45;2.70;;;0.55;;
75718;SDS011;64340;48.534;-3.036;2024-03-23T07:18:38;2.13;;;0.50;;
75718;SDS011;64340;48.534;-3.036;2024-03-23T07:21:04;1.88;;;0.30;;
75718;SDS011;64340;48.534;-3.036;2024-03-23T07:23:31;2.80;;;0.45;;
75718;SDS011;64340;48.534;-3.036;2024-03-23T07:26:04;2.40;;;0.50;;
75718;SDS011;64340;48.534;-3.036;2024-03-23T07:28:33;2.63;;;0.45;;
75718;SDS011;64340;48.534;-3.036;2024-03-23T07:31:10;1.27;;;0.30;;
75718;SDS011;64340;48.534;-3.036;2024-03-23T07:33:37;2.03;;;0.38;;
75718;SDS011;64340;48.534;-3.036;2024-03-23T07:36:07;3.38;;;0.40;;
75718;SDS011;64340;48.534;-3.036;2024-03-23T07:38:33;3.53;;;0.47;;
75718;SDS011;64340;48.534;-3.036;2024-03-23T07:41:05;2.28;;;0.38;;
75718;SDS011;64340;48.534;-3.036;2024-03-23T07:43:32;2.88;;;1.40;;
75718;SDS011;64340;48.534;-3.036;2024-03-23T07:45:58;2.55;;;0.52;;
75718;SDS011;64340;48.534;-3.036;2024-03-23T07:48:24;2.20;;;0.40;;
75718;SDS011;64340;48.534;-3.036;2024-03-23T07:51:00;1.65;;;0.43;;
75718;SDS011;64340;48.534;-3.036;2024-03-23T07:53:30;4.78;;;0.57;;
75718;SDS011;64340;48.534;-3.036;2024-03-23T07:55:57;2.20;;;0.40;;
75718;SDS011;64340;48.534;-3.036;2024-03-23T07:58:24;1.77;;;0.30;;
75718;SDS011;64340;48.534;-3.036;2024-03-23T08:00:51;3.17;;;0.50;;
75718;SDS011;64340;48.534;-3.036;2024-03-23T08:03:18;2.00;;;0.40;;
75718;SDS011;64340;48.534;-3.036;2024-03-23T08:05:44;3.78;;;0.50;;
75718;SDS011;64340;48.534;-3.036;2024-03-23T08:08:10;3.25;;;0.70;;
75718;SDS011;64340;48.534;-3.036;2024-03-23T08:10:36;3.42;;;0.70;;
75718;SDS011;64340;48.534;-3.036;2024-03-23T08:13:03;1.23;;;0.57;;
75718;SDS011;64340;48.534;-3.036;2024-03-23T08:15:31;1.92;;;0.52;;
75718;SDS011;64340;48.534;-3.036;2024-03-23T08:18:00;1.73;;;0.50;;
75718;SDS011;64340;48.534;-3.036;2024-03-23T08:20:26;1.35;;;0.30;;
75718;SDS011;64340;48.534;-3.036;2024-03-23T08:22:52;2.10;;;0.50;;
75718;SDS011;64340;48.534;-3.036;2024-03-23T08:25:17;2.92;;;0.50;;
75718;SDS011;64340;48.534;-3.036;2024-03-23T08:27:44;2.33;;;0.43;;
75718;SDS011;64340;48.534;-3.036;2024-03-23T08:30:10;1.38;;;0.50;;
75718;SDS011;64340;48.534;-3.036;2024-03-23T08:32:36;1.45;;;0.63;;
75718;SDS011;64340;48.534;-3.036;2024-03-23T08:35:02;2.50;;;0.60;;
75718;SDS011;64340;48.534;-3.036;2024-03-23T08:37:30;1.27;;;0.45;;
75718;SDS011;64340;48.534;-3.036;2024-03-23T08:39:56;1.23;;;0.40;;
75718;SDS011;64340;48.534;-3.036;2024-03-23T08:42:22;3.45;;;0.75;;
75718;SDS011;64340;48.534;-3.036;2024-03-23T08:44:48;3.28;;;0.50;;
75718;SDS011;64340;48.534;-3.036;2024-03-23T08:47:15;2.33;;;0.45;;
75718;SDS011;64340;48.534;-3.036;2024-03-23T08:49:41;3.72;;;0.50;;
75718;SDS011;64340;48.534;-3.036;2024-03-23T08:52:07;3.58;;;0.40;;
75718;SDS011;64340;48.534;-3.036;2024-03-23T08:54:33;1.60;;;0.40;;
75718;SDS011;64340;48.534;-3.036;2024-03-23T08:56:59;1.83;;;0.50;;
75718;SDS011;64340;48.534;-3.036;2024-03-23T08:59:25;5.18;;;0.52;;
75718;SDS011;64340;48.534;-3.036;2024-03-23T09:01:52;4.40;;;0.70;;
75718;SDS011;64340;48.534;-3.036;2024-03-23T09:04:18;1.98;;;0.50;;
75718;SDS011;64340;48.534;-3.036;2024-03-23T09:06:44;3.70;;;0.90;;
75718;SDS011;64340;48.534;-3.036;2024-03-23T09:09:10;5.97;;;1.00;;
75718;SDS011;64340;48.534;-3.036;2024-03-23T09:11:41;5.00;;;0.85;;
75718;SDS011;64340;48.534;-3.036;2024-03-23T09:14:07;3.88;;;1.15;;
75718;SDS011;64340;48.534;-3.036;2024-03-23T09:16:34;4.10;;;0.82;;
75718;SDS011;64340;48.534;-3.036;2024-03-23T09:19:00;3.50;;;0.70;;
75718;SDS011;64340;48.534;-3.036;2024-03-23T09:21:26;2.30;;;0.68;;
75718;SDS011;64340;48.534;-3.036;2024-03-23T09:23:51;3.13;;;0.90;;
75718;SDS011;64340;48.534;-3.036;2024-03-23T09:26:17;3.42;;;0.73;;
75718;SDS011;64340;48.534;-3.036;2024-03-23T09:28:43;3.03;;;0.65;;
75718;SDS011;64340;48.534;-3.036;2024-03-23T09:31:09;4.43;;;0.73;;
75718;SDS011;64340;48.534;-3.036;2024-03-23T09:33:39;3.85;;;0.75;;
75718;SDS011;64340;48.534;-3.036;2024-03-23T09:36:05;8.20;;;1.20;;
75718;SDS011;64340;48.534;-3.036;2024-03-23T09:38:31;5.45;;;1.05;;
75718;SDS011;64340;48.534;-3.036;2024-03-23T09:40:58;8.57;;;1.50;;
75718;SDS011;64340;48.534;-3.036;2024-03-23T09:43:24;4.60;;;0.80;;
75718;SDS011;64340;48.534;-3.036;2024-03-23T09:45:50;8.35;;;1.67;;
75718;SDS011;64340;48.534;-3.036;2024-03-23T09:48:16;11.75;;;4.40;;
75718;SDS011;64340;48.534;-3.036;2024-03-23T09:50:43;7.50;;;3.90;;
75718;SDS011;64340;48.534;-3.036;2024-03-23T09:53:10;7.85;;;1.95;;
75718;SDS011;64340;48.534;-3.036;2024-03-23T09:55:37;5.28;;;1.58;;
75718;SDS011;64340;48.534;-3.036;2024-03-23T09:58:04;8.40;;;1.88;;
75718;SDS011;64340;48.534;-3.036;2024-03-23T10:00:31;6.78;;;1.92;;
75718;SDS011;64340;48.534;-3.036;2024-03-23T10:03:00;4.05;;;1.00;;
75718;SDS011;64340;48.534;-3.036;2024-03-23T10:05:29;5.30;;;0.95;;
75718;SDS011;64340;48.534;-3.036;2024-03-23T10:10:39;8.18;;;1.70;;
75718;SDS011;64340;48.534;-3.036;2024-03-23T10:13:08;3.33;;;0.90;;
75718;SDS011;64340;48.534;-3.036;2024-03-23T10:15:35;4.78;;;1.10;;
75718;SDS011;64340;48.534;-3.036;2024-03-23T10:18:17;3.78;;;1.00;;
75718;SDS011;64340;48.534;-3.036;2024-03-23T10:20:47;7.35;;;1.38;;
75718;SDS011;64340;48.534;-3.036;2024-03-23T10:23:16;8.10;;;1.33;;
75718;SDS011;64340;48.534;-3.036;2024-03-23T10:25:42;6.47;;;1.30;;
75718;SDS011;64340;48.534;-3.036;2024-03-23T10:28:08;3.40;;;1.20;;
75718;SDS011;64340;48.534;-3.036;2024-03-23T10:30:34;5.53;;;0.80;;
75718;SDS011;64340;48.534;-3.036;2024-03-23T10:33:10;3.00;;;0.82;;
75718;SDS011;64340;48.534;-3.036;2024-03-23T10:35:36;3.42;;;0.80;;
75718;SDS011;64340;48.534;-3.036;2024-03-23T10:38:06;3.67;;;1.05;;
75718;SDS011;64340;48.534;-3.036;2024-03-23T10:40:36;7.30;;;1.33;;
75718;SDS011;64340;48.534;-3.036;2024-03-23T10:43:05;3.47;;;0.70;;
75718;SDS011;64340;48.534;-3.036;2024-03-23T10:45:33;4.35;;;0.88;;
75718;SDS011;64340;48.534;-3.036;2024-03-23T10:47:59;5.57;;;1.00;;
75718;SDS011;64340;48.534;-3.036;2024-03-23T10:50:25;5.13;;;1.10;;
75718;SDS011;64340;48.534;-3.036;2024-03-23T10:52:52;6.28;;;1.42;;
75718;SDS011;64340;48.534;-3.036;2024-03-23T10:55:21;3.20;;;1.15;;
75718;SDS011;64340;48.534;-3.036;2024-03-23T10:57:52;5.13;;;1.17;;
75718;SDS011;64340;48.534;-3.036;2024-03-23T11:00:20;5.00;;;1.30;;
75718;SDS011;64340;48.534;-3.036;2024-03-23T11:02:48;6.13;;;1.42;;
75718;SDS011;64340;48.534;-3.036;2024-03-23T11:07:52;13.27;;;5.20;;
75718;SDS011;64340;48.534;-3.036;2024-03-23T11:10:28;35.83;;;16.80;;
75718;SDS011;64340;48.534;-3.036;2024-03-23T11:12:55;39.83;;;19.25;;
75718;SDS011;64340;48.534;-3.036;2024-03-23T11:15:22;40.75;;;18.77;;
75718;SDS011;64340;48.534;-3.036;2024-03-23T11:18:07;38.72;;;20.10;;
75718;SDS011;64340;48.534;-3.036;2024-03-23T11:20:34;38.97;;;17.92;;
75718;SDS011;64340;48.534;-3.036;2024-03-23T11:23:00;36.40;;;18.33;;
75718;SDS011;64340;48.534;-3.036;2024-03-23T11:25:27;32.85;;;16.30;;
75718;SDS011;64340;48.534;-3.036;2024-03-23T11:27:57;33.03;;;15.48;;
75718;SDS011;64340;48.534;-3.036;2024-03-23T11:30:34;30.65;;;14.27;;
75718;SDS011;64340;48.534;-3.036;2024-03-23T11:32:59;27.83;;;14.57;;
75718;SDS011;64340;48.534;-3.036;2024-03-23T11:38:12;29.02;;;13.15;;
75718;SDS011;64340;48.534;-3.036;2024-03-23T11:40:40;27.90;;;12.85;;
75718;SDS011;64340;48.534;-3.036;2024-03-23T11:43:09;25.58;;;12.80;;
75718;SDS011;64340;48.534;-3.036;2024-03-23T11:45:43;23.90;;;12.18;;
75718;SDS011;64340;48.534;-3.036;2024-03-23T11:48:14;22.63;;;10.50;;
75718;SDS011;64340;48.534;-3.036;2024-03-23T11:50:44;26.92;;;11.30;;
75718;SDS011;64340;48.534;-3.036;2024-03-23T11:58:12;21.15;;;9.82;;
75718;SDS011;64340;48.534;-3.036;2024-03-23T12:00:38;21.60;;;10.63;;
75718;SDS011;64340;48.534;-3.036;2024-03-23T12:03:05;18.20;;;9.10;;
75718;SDS011;64340;48.534;-3.036;2024-03-23T12:05:32;18.13;;;9.02;;
75718;SDS011;64340;48.534;-3.036;2024-03-23T12:13:42;15.88;;;7.82;;
75718;SDS011;64340;48.534;-3.036;2024-03-23T12:18:45;18.88;;;8.02;;
75718;SDS011;64340;48.534;-3.036;2024-03-23T12:21:12;17.65;;;7.32;;
75718;SDS011;64340;48.534;-3.036;2024-03-23T12:23:41;15.13;;;7.13;;
75718;SDS011;64340;48.534;-3.036;2024-03-23T12:26:10;13.48;;;6.65;;
75718;SDS011;64340;48.534;-3.036;2024-03-23T12:28:37;15.90;;;6.57;;
75718;SDS011;64340;48.534;-3.036;2024-03-23T12:31:03;12.52;;;6.72;;
75718;SDS011;64340;48.534;-3.036;2024-03-23T12:33:29;15.82;;;6.63;;
75718;SDS011;64340;48.534;-3.036;2024-03-23T12:35:55;16.13;;;6.60;;
75718;SDS011;64340;48.534;-3.036;2024-03-23T12:38:21;14.50;;;6.15;;
75718;SDS011;64340;48.534;-3.036;2024-03-23T12:40:47;12.95;;;5.72;;
75718;SDS011;64340;48.534;-3.036;2024-03-23T12:43:13;13.77;;;6.78;;
75718;SDS011;64340;48.534;-3.036;2024-03-23T12:45:39;11.85;;;5.70;;
75718;SDS011;64340;48.534;-3.036;2024-03-23T12:48:05;12.07;;;5.82;;
75718;SDS011;64340;48.534;-3.036;2024-03-23T12:50:32;14.55;;;6.28;;
75718;SDS011;64340;48.534;-3.036;2024-03-23T12:52:57;14.52;;;5.65;;
75718;SDS011;64340;48.534;-3.036;2024-03-23T12:55:23;15.15;;;5.65;;
75718;SDS011;64340;48.534;-3.036;2024-03-23T12:57:49;11.77;;;5.40;;
75718;SDS011;64340;48.534;-3.036;2024-03-23T13:00:15;13.13;;;4.53;;
75718;SDS011;64340;48.534;-3.036;2024-03-23T13:02:42;11.02;;;4.82;;
75718;SDS011;64340;48.534;-3.036;2024-03-23T13:05:08;14.52;;;5.10;;
75718;SDS011;64340;48.534;-3.036;2024-03-23T13:07:34;14.50;;;4.97;;
75718;SDS011;64340;48.534;-3.036;2024-03-23T13:10:00;10.82;;;3.83;;
75718;SDS011;64340;48.534;-3.036;2024-03-23T13:12:27;12.13;;;4.68;;
75718;SDS011;64340;48.534;-3.036;2024-03-23T13:14:53;11.70;;;5.07;;
75718;SDS011;64340;48.534;-3.036;2024-03-23T13:17:18;9.35;;;3.95;;
75718;SDS011;64340;48.534;-3.036;2024-03-23T13:19:44;10.65;;;3.72;;
75718;SDS011;64340;48.534;-3.036;2024-03-23T13:22:10;8.88;;;3.97;;
75718;SDS011;64340;48.534;-3.036;2024-03-23T13:24:36;10.85;;;3.55;;
75718;SDS011;64340;48.534;-3.036;2024-03-23T13:27:03;9.05;;;3.17;;
75718;SDS011;64340;48.534;-3.036;2024-03-23T13:29:30;7.53;;;3.22;;
75718;SDS011;64340;48.534;-3.036;2024-03-23T13:31:56;9.02;;;3.67;;
75718;SDS011;64340;48.534;-3.036;2024-03-23T13:34:22;9.90;;;3.10;;
75718;SDS011;64340;48.534;-3.036;2024-03-23T13:36:47;9.13;;;2.60;;
75718;SDS011;64340;48.534;-3.036;2024-03-23T13:39:14;10.88;;;2.88;;
75718;SDS011;64340;48.534;-3.036;2024-03-23T13:41:41;8.35;;;3.45;;
75718;SDS011;64340;48.534;-3.036;2024-03-23T13:44:11;7.65;;;2.50;;
75718;SDS011;64340;48.534;-3.036;2024-03-23T13:46:41;6.65;;;2.17;;
75718;SDS011;64340;48.534;-3.036;2024-03-23T13:49:08;5.40;;;2.10;;
75718;SDS011;64340;48.534;-3.036;2024-03-23T13:51:59;6.75;;;2.50;;
75718;SDS011;64340;48.534;-3.036;2024-03-23T13:54:27;6.15;;;2.08;;
75718;SDS011;64340;48.534;-3.036;2024-03-23T13:56:54;4.88;;;1.77;;
75718;SDS011;64340;48.534;-3.036;2024-03-23T13:59:21;8.38;;;2.10;;
75718;SDS011;64340;48.534;-3.036;2024-03-23T14:01:50;6.38;;;2.47;;
75718;SDS011;64340;48.534;-3.036;2024-03-23T14:04:16;7.57;;;2.50;;
75718;SDS011;64340;48.534;-3.036;2024-03-23T14:06:44;7.72;;;2.30;;
75718;SDS011;64340;48.534;-3.036;2024-03-23T14:09:13;5.78;;;1.90;;
75718;SDS011;64340;48.534;-3.036;2024-03-23T14:11:39;4.70;;;1.88;;
75718;SDS011;64340;48.534;-3.036;2024-03-23T14:14:07;5.28;;;2.20;;
75718;SDS011;64340;48.534;-3.036;2024-03-23T14:16:33;5.32;;;2.10;;
75718;SDS011;64340;48.534;-3.036;2024-03-23T14:18:59;7.05;;;2.00;;
75718;SDS011;64340;48.534;-3.036;2024-03-23T14:21:25;7.28;;;2.45;;
75718;SDS011;64340;48.534;-3.036;2024-03-23T14:23:51;6.57;;;2.28;;
75718;SDS011;64340;48.534;-3.036;2024-03-23T14:26:16;7.93;;;1.50;;
75718;SDS011;64340;48.534;-3.036;2024-03-23T14:28:42;5.78;;;1.50;;
75718;SDS011;64340;48.534;-3.036;2024-03-23T14:31:08;8.23;;;1.83;;
75718;SDS011;64340;48.534;-3.036;2024-03-23T14:33:36;8.13;;;1.65;;
75718;SDS011;64340;48.534;-3.036;2024-03-23T14:36:03;6.97;;;1.15;;
75718;SDS011;64340;48.534;-3.036;2024-03-23T14:38:29;4.80;;;1.17;;
75718;SDS011;64340;48.534;-3.036;2024-03-23T14:40:59;6.40;;;1.50;;
75718;SDS011;64340;48.534;-3.036;2024-03-23T14:43:27;5.18;;;1.00;;
75718;SDS011;64340;48.534;-3.036;2024-03-23T14:46:09;5.00;;;1.13;;
75718;SDS011;64340;48.534;-3.036;2024-03-23T14:48:37;7.25;;;1.48;;
75718;SDS011;64340;48.534;-3.036;2024-03-23T14:51:03;5.75;;;1.33;;
75718;SDS011;64340;48.534;-3.036;2024-03-23T14:53:33;6.78;;;1.52;;
75718;SDS011;64340;48.534;-3.036;2024-03-23T14:56:00;6.85;;;1.92;;
75718;SDS011;64340;48.534;-3.036;2024-03-23T14:58:27;7.40;;;1.63;;
75718;SDS011;64340;48.534;-3.036;2024-03-23T15:00:53;5.90;;;1.65;;
75718;SDS011;64340;48.534;-3.036;2024-03-23T15:03:24;4.70;;;1.52;;
75718;SDS011;64340;48.534;-3.036;2024-03-23T15:05:54;5.82;;;1.65;;
75718;SDS011;64340;48.534;-3.036;2024-03-23T15:08:20;5.60;;;1.25;;
75718;SDS011;64340;48.534;-3.036;2024-03-23T15:10:46;8.13;;;1.55;;
75718;SDS011;64340;48.534;-3.036;2024-03-23T15:13:12;4.07;;;1.30;;
75718;SDS011;64340;48.534;-3.036;2024-03-23T15:15:39;7.43;;;1.40;;
75718;SDS011;64340;48.534;-3.036;2024-03-23T15:18:08;4.13;;;1.30;;
75718;SDS011;64340;48.534;-3.036;2024-03-23T15:20:41;3.63;;;0.90;;
75718;SDS011;64340;48.534;-3.036;2024-03-23T15:23:16;3.85;;;0.80;;
75718;SDS011;64340;48.534;-3.036;2024-03-23T15:25:41;4.60;;;0.88;;
75718;SDS011;64340;48.534;-3.036;2024-03-23T15:28:07;2.95;;;0.50;;
75718;SDS011;64340;48.534;-3.036;2024-03-23T15:30:33;7.40;;;1.50;;
75718;SDS011;64340;48.534;-3.036;2024-03-23T15:32:58;6.22;;;1.17;;
75718;SDS011;64340;48.534;-3.036;2024-03-23T15:35:24;6.05;;;1.73;;
75718;SDS011;64340;48.534;-3.036;2024-03-23T15:37:50;5.13;;;1.80;;
75718;SDS011;64340;48.534;-3.036;2024-03-23T15:40:16;6.18;;;1.92;;
75718;SDS011;64340;48.534;-3.036;2024-03-23T15:42:42;6.43;;;1.90;;
75718;SDS011;64340;48.534;-3.036;2024-03-23T15:45:08;8.68;;;1.75;;
75718;SDS011;64340;48.534;-3.036;2024-03-23T15:47:35;7.55;;;1.88;;